Halma, MN

9:19 PM CDT on May 29, 2015 (GMT -0500)
Thief River Falls Regional | | Change Station
CLOSE
Current Station
Airport
Location: Thief River Falls,
Elevation: 1115 ft
Nearby Weather Stations
Active Advisory: Frost Advisory Active Notice: Local Storm Report

Elev 1115 ft 48.06 °N, 96.18 °W | Updated 4 minutes ago

Clear
Clear
46 °F
Feels Like 40 °F
N
16
Wind Variable Wind from North
Gusts 21 mph

Today
High -- | Low -- °F
--% Chance of Precip.
Yesterday
High -- | Low -- °F
Precip. -- in
5:30 AM 9:17 PM
Waxing Gibbous, 87% visible
Pressure 30.23 in
Visibility 10.0 miles
Clouds Clear
Windchill 40 °F
Dew Point 30 °F
Humidity 53%
Rainfall 0.00 in
Snow Depth Not available.
UV 0 out of 12
Pollen 9.40 out of 12
Air Quality Not available.
Flu Activity Sporadic
METAR KTVF 300215Z AUTO 35014G18KT 10SM CLR 08/M01 A3023 RMK AO1

More Conditions Fewer Conditions

Pressure 30.23 in
Visibility 10.0 miles
Clouds Clear
Windchill 40 °F
Dew Point 30 °F
Humidity 53%
Rainfall 0.00 in
Snow Depth Not available.
UV 0 out of 12
Pollen 9.40 out of 12
Air Quality Not available.
Flu Activity Sporadic
METAR KTVF 300215Z AUTO 35014G18KT 10SM CLR 08/M01 A3023 RMK AO1

More Conditions Fewer Conditions

10-Day Weather Forecast

Almanac

Astronomy

May. 29, 2015 Rise Set
Actual Time
Civil Twilight
Nautical Twilight
Astronomical Twilight
Moon
Length of Visible Light
Length of Day
Tomorrow will be .
, % of the Moon is Illuminated

Today's Extremes

State Highs State Lows

Community

WunderPhotos

Upload Photos

1,825,420 photos uploaded!

WunderBlogs® & News

Nearby

Air Quality

  Air Quality AQ Index Pollutant
Not available.

Snow Depth

Station Depth Elevation

Earthquake Activity

City Distance Mag. Time & Date
Minimum magnitude displayed is 2.5.

Coastal Water Temperatures

Place Temperature

Stations

Nearby Weather Stations

Station Location Temp. Windchill Dew Point Humidity Wind Precip. Elev Updated Type
                   
Frost Advisory
Statement as of 3:18 PM CDT on May 29, 2015

... Frost advisory in effect from 3 am to 9 am CDT Saturday...

The National Weather Service in Grand Forks has issued a frost
advisory... which is in effect from 3 am to 9 am CDT Saturday.

* Temperatures... in the low to middle 30s.

* Timing... after midnight to sunrise.

Precautionary/preparedness actions...

A frost advisory means that widespread frost is expected.
Sensitive outdoor plants may be killed if left uncovered.